createdAt,value
2022-09-21T00:00:39.841Z,8.07
2022-09-21T00:05:41.715Z,9.35
2022-09-21T00:10:43.233Z,8.32
2022-09-21T00:15:44.740Z,14.23
2022-09-21T00:20:46.615Z,8.27
2022-09-21T00:25:48.349Z,8.77
2022-09-21T00:30:52.016Z,10.55
2022-09-21T00:35:53.720Z,9.93
2022-09-21T00:40:55.223Z,10.52
2022-09-21T00:46:00.886Z,8.68
2022-09-21T00:51:06.380Z,7.45
2022-09-21T00:56:08.460Z,5.95
2022-09-21T01:01:10.704Z,8.80
2022-09-21T01:06:16.989Z,9.88
2022-09-21T01:11:25.567Z,9.30
2022-09-21T01:16:47.301Z,9.20
2022-09-21T01:21:54.091Z,8.77
2022-09-21T01:27:21.690Z,8.65
2022-09-21T01:32:25.954Z,8.85
2022-09-21T01:37:47.947Z,7.32
2022-09-21T01:42:51.467Z,8.13
2022-09-21T01:47:54.197Z,8.25
2022-09-21T01:52:55.647Z,7.82
2022-09-21T01:58:18.137Z,9.88
2022-09-21T02:03:38.461Z,9.25
2022-09-21T02:08:39.804Z,9.18
2022-09-21T02:13:44.033Z,10.75
2022-09-21T02:18:45.374Z,9.10
2022-09-21T02:23:56.476Z,8.32
2022-09-21T02:29:07.243Z,7.80
2022-09-21T02:34:17.940Z,7.80
2022-09-21T02:39:45.595Z,11.52
2022-09-21T02:44:52.024Z,10.85
2022-09-21T02:49:55.045Z,10.95
2022-09-21T02:54:56.924Z,7.13
2022-09-21T02:59:58.236Z,7.43
2022-09-21T03:04:59.575Z,8.35
2022-09-21T03:10:00.895Z,9.63
2022-09-21T03:15:02.240Z,9.23
2022-09-21T03:20:03.653Z,8.10
2022-09-21T03:25:05.355Z,6.75
2022-09-21T03:30:06.844Z,10.65
2022-09-21T03:35:08.385Z,8.27
2022-09-21T03:40:10.078Z,7.68
2022-09-21T03:45:12.060Z,8.90
2022-09-21T03:50:13.420Z,7.22
2022-09-21T03:55:14.759Z,10.20
2022-09-21T04:00:16.183Z,9.07
2022-09-21T04:05:17.584Z,11.73
2022-09-21T04:10:20.122Z,9.25
2022-09-21T04:15:21.612Z,7.40
2022-09-21T04:20:23.351Z,7.07
2022-09-21T04:25:24.681Z,6.80
2022-09-21T04:30:26.141Z,8.25
2022-09-21T04:35:27.615Z,8.18
2022-09-21T04:40:29.227Z,8.45
2022-09-21T04:45:31.140Z,7.68
2022-09-21T04:50:32.542Z,8.98
2022-09-21T04:55:33.894Z,7.93
2022-09-21T05:00:35.247Z,8.18
2022-09-21T05:05:36.564Z,7.53
2022-09-21T05:10:38.034Z,7.25
2022-09-21T05:15:39.578Z,6.80
2022-09-21T05:20:40.939Z,9.55
2022-09-21T05:25:43.682Z,9.10
2022-09-21T05:31:07.186Z,7.88
2022-09-21T05:36:16.290Z,8.88
2022-09-21T05:41:17.822Z,8.05
2022-09-21T05:46:37.931Z,9.27
2022-09-21T05:51:44.641Z,8.52
2022-09-21T05:56:46.241Z,9.68
2022-09-21T06:01:51.054Z,7.00
2022-09-21T06:06:52.696Z,10.68
2022-09-21T06:11:54.077Z,8.27
2022-09-21T06:16:55.519Z,7.32
2022-09-21T06:21:56.918Z,9.13
2022-09-21T06:26:58.589Z,10.65
2022-09-21T06:32:01.487Z,8.18
2022-09-21T06:37:03.225Z,8.63
2022-09-21T06:42:04.604Z,11.27
2022-09-21T06:47:06.016Z,7.82
2022-09-21T06:52:07.612Z,7.28
2022-09-21T06:57:09.121Z,8.15
2022-09-21T07:02:11.570Z,7.35
2022-09-21T07:07:13.122Z,9.45
2022-09-21T07:12:16.126Z,9.00
2022-09-21T07:17:17.575Z,8.63
2022-09-21T07:22:18.961Z,9.80
2022-09-21T07:27:20.521Z,7.57
2022-09-21T07:32:22.037Z,8.25
2022-09-21T07:37:24.701Z,6.45
2022-09-21T07:42:27.880Z,9.95
2022-09-21T07:47:29.254Z,8.20
2022-09-21T07:52:30.843Z,8.05
2022-09-21T07:57:50.870Z,7.72
2022-09-21T08:02:52.206Z,7.93
2022-09-21T08:07:57.332Z,7.55
2022-09-21T08:12:58.779Z,8.52
2022-09-21T08:18:00.932Z,7.28
2022-09-21T08:23:02.390Z,8.43
2022-09-21T08:28:08.865Z,9.60
2022-09-21T08:33:11.133Z,8.30
2022-09-21T08:38:12.516Z,5.97
2022-09-21T08:43:17.345Z,8.68
2022-09-21T08:48:29.065Z,7.85
2022-09-21T08:53:33.739Z,8.18
2022-09-21T08:58:37.071Z,6.20
2022-09-21T09:03:50.889Z,6.80
2022-09-21T09:09:10.765Z,4.88
2022-09-21T09:14:29.099Z,6.65
2022-09-21T09:19:30.433Z,4.90
2022-09-21T09:24:37.093Z,7.32
2022-09-21T09:29:38.435Z,6.03
2022-09-21T09:34:42.284Z,6.60
2022-09-21T09:39:45.776Z,5.72
2022-09-21T09:45:03.041Z,6.13
2022-09-21T09:50:06.836Z,7.07
2022-09-21T09:55:15.523Z,6.57
2022-09-21T10:00:20.738Z,6.73
2022-09-21T10:05:23.840Z,6.43
2022-09-21T10:10:40.448Z,7.40
2022-09-21T10:15:43.756Z,9.30
2022-09-21T10:21:02.906Z,7.85
2022-09-21T10:26:13.759Z,6.17
2022-09-21T10:31:23.650Z,8.45
2022-09-21T10:36:31.462Z,4.72
2022-09-21T10:41:32.822Z,6.43
2022-09-21T10:46:35.443Z,8.02
2022-09-21T10:51:37.135Z,7.65
2022-09-21T10:56:49.748Z,5.88
2022-09-21T11:01:52.336Z,7.80
2022-09-21T11:07:13.763Z,7.95
2022-09-21T11:12:34.034Z,7.13
2022-09-21T11:17:38.890Z,5.63
2022-09-21T11:23:00.883Z,5.80
2022-09-21T11:28:22.921Z,5.28
2022-09-21T11:33:37.155Z,7.15
2022-09-21T11:38:53.910Z,8.77
2022-09-21T11:43:55.519Z,2.92
2022-09-21T11:49:15.676Z,5.13
2022-09-21T11:54:17.021Z,4.88
2022-09-21T11:59:18.597Z,6.18
2022-09-21T12:04:32.365Z,9.57
2022-09-21T12:09:43.928Z,4.80
2022-09-21T12:20:28.342Z,5.68
2022-09-21T12:25:39.497Z,5.70
2022-09-21T12:30:43.957Z,8.13
2022-09-21T12:35:48.168Z,6.82
2022-09-21T12:40:51.653Z,7.05
2022-09-21T12:46:04.658Z,4.15
2022-09-21T12:51:24.962Z,6.90
2022-09-21T12:56:29.331Z,7.78
2022-09-21T13:01:37.679Z,6.30
2022-09-21T13:06:53.215Z,5.93
2022-09-21T13:11:56.805Z,6.35
2022-09-21T13:17:00.959Z,5.88
2022-09-21T13:22:21.199Z,8.52
2022-09-21T13:27:22.624Z,4.32
2022-09-21T13:32:24.286Z,5.70
2022-09-21T13:37:27.620Z,4.90
2022-09-21T13:42:32.138Z,5.82
2022-09-21T13:47:39.136Z,3.35
2022-09-21T13:52:45.387Z,8.52
2022-09-21T13:57:48.486Z,4.55
2022-09-21T14:02:54.756Z,5.32
2022-09-21T14:08:16.556Z,6.20
2022-09-21T14:13:27.122Z,5.35
2022-09-21T14:18:35.999Z,6.18
2022-09-21T14:23:38.399Z,4.03
2022-09-21T14:28:43.743Z,5.93
2022-09-21T14:33:47.730Z,5.68
2022-09-21T14:38:54.142Z,7.80
2022-09-21T14:43:57.353Z,5.28
2022-09-21T14:49:04.427Z,7.90
2022-09-21T14:54:26.232Z,4.72
2022-09-21T14:59:44.630Z,4.80
2022-09-21T15:04:54.415Z,6.50
2022-09-21T15:10:21.180Z,4.43
2022-09-21T15:15:34.601Z,4.45
2022-09-21T15:20:35.974Z,8.27
2022-09-21T15:25:37.938Z,5.22
2022-09-21T15:30:44.424Z,6.07
2022-09-21T15:35:46.647Z,5.20
2022-09-21T15:40:50.001Z,5.72
2022-09-21T15:45:56.333Z,6.90
2022-09-21T15:51:00.294Z,8.48
2022-09-21T15:56:01.883Z,5.88
2022-09-21T16:01:11.100Z,4.47
2022-09-21T16:11:26.537Z,5.80
2022-09-21T16:16:28.101Z,4.60
2022-09-21T16:21:33.684Z,4.90
2022-09-21T16:26:36.530Z,7.03
2022-09-21T16:31:39.024Z,7.15
2022-09-21T16:36:41.902Z,7.57
2022-09-21T16:41:47.319Z,5.70
2022-09-21T16:46:51.538Z,3.88
2022-09-21T16:51:55.445Z,6.35
2022-09-21T16:56:58.326Z,6.72
2022-09-21T17:02:00.547Z,6.28
2022-09-21T17:07:05.426Z,5.97
2022-09-21T17:12:07.910Z,6.55
2022-09-21T17:17:17.575Z,5.53
2022-09-21T17:22:19.503Z,8.38
2022-09-21T17:27:22.632Z,10.43
2022-09-21T17:32:24.707Z,7.32
2022-09-21T17:37:26.844Z,9.43
2022-09-21T17:42:28.438Z,6.55
2022-09-21T17:47:31.162Z,6.97
2022-09-21T17:52:51.258Z,9.00
2022-09-21T17:58:27.999Z,6.28
2022-09-21T18:03:30.975Z,9.02
2022-09-21T18:08:33.920Z,7.75
2022-09-21T18:13:40.015Z,9.60
2022-09-21T18:19:03.655Z,7.97
2022-09-21T18:24:08.061Z,10.48
2022-09-21T18:29:39.778Z,9.40
2022-09-21T18:35:00.625Z,9.90
2022-09-21T18:45:07.252Z,10.75
2022-09-21T18:50:18.483Z,9.43
2022-09-21T18:55:27.535Z,10.90
2022-09-21T19:00:34.722Z,12.90
2022-09-21T19:05:37.082Z,12.82
2022-09-21T19:10:40.759Z,13.50
2022-09-21T19:16:00.988Z,13.13
2022-09-21T19:21:21.422Z,13.32
2022-09-21T19:26:29.081Z,14.07
2022-09-21T19:31:30.617Z,13.15
2022-09-21T19:36:32.040Z,13.68
2022-09-21T19:41:33.458Z,13.00
2022-09-21T19:46:47.089Z,12.20
2022-09-21T19:51:49.727Z,15.05
2022-09-21T19:57:09.641Z,12.48
2022-09-21T20:02:15.373Z,17.75
2022-09-21T20:07:21.232Z,13.13
2022-09-21T20:12:25.251Z,12.82
2022-09-21T20:17:38.881Z,10.93
2022-09-21T20:22:40.696Z,14.80
2022-09-21T20:27:42.015Z,11.27
2022-09-21T20:32:44.933Z,12.50
2022-09-21T20:37:46.321Z,12.75
2022-09-21T20:42:47.640Z,12.95
2022-09-21T20:47:49.709Z,10.55
2022-09-21T20:52:52.197Z,11.38
2022-09-21T20:57:53.573Z,11.60
2022-09-21T21:02:56.311Z,12.50
2022-09-21T21:07:57.656Z,10.98
2022-09-21T21:12:59.025Z,12.27
2022-09-21T21:18:00.395Z,14.75
2022-09-21T21:23:07.181Z,13.77
2022-09-21T21:28:09.442Z,11.50
2022-09-21T21:33:11.206Z,12.40
2022-09-21T21:38:13.513Z,11.68
2022-09-21T21:43:14.878Z,11.43
2022-09-21T21:48:16.255Z,12.15
2022-09-21T21:53:17.605Z,10.63
2022-09-21T21:58:20.343Z,11.05
2022-09-21T22:03:21.707Z,12.18
2022-09-21T22:08:23.086Z,13.02
2022-09-21T22:13:25.540Z,11.70
2022-09-21T22:18:27.145Z,11.27
2022-09-21T22:23:28.665Z,11.77
2022-09-21T22:28:30.213Z,10.98
2022-09-21T22:33:33.236Z,10.20
2022-09-21T22:38:39.214Z,12.30
2022-09-21T22:43:43.889Z,10.13
2022-09-21T22:48:45.796Z,11.55
2022-09-21T22:53:48.395Z,11.57
2022-09-21T22:58:51.654Z,12.80
2022-09-21T23:03:57.400Z,10.95
2022-09-21T23:08:59.600Z,12.38
2022-09-21T23:14:01.042Z,11.80
2022-09-21T23:19:02.344Z,10.38
2022-09-21T23:24:05.380Z,9.98
2022-09-21T23:29:10.022Z,9.50
2022-09-21T23:34:12.742Z,10.38
2022-09-21T23:39:15.058Z,14.13
2022-09-21T23:44:16.436Z,10.68
2022-09-21T23:49:19.057Z,10.43
2022-09-21T23:54:20.406Z,10.85
2022-09-21T23:59:24.082Z,11.65
